Time;durP1;ratioP1;P1;durP2;ratioP2;P2;SDS_P1;SDS_P2;PMS_P1;PMS_P2;Temp;Humidity;BMP_temperature;BMP_pressure;BME280_temperature;BME280_humidity;BME280_pressure;Samples;Min_cycle;Max_cycle;Signal;HPM_P1;HPM_P2
2024/01/01 00:01:55;;;;;;;25.50;15.85;;;;;;;;;;4987950;28;101215;-81
2024/01/01 00:04:24;;;;;;;25.50;16.80;;;;;;;;;;4955697;28;99677;-81
2024/01/01 00:06:51;;;;;;;20.85;14.38;;;;;;;;;;4972617;28;98447;-81
2024/01/01 00:09:17;;;;;;;27.83;15.90;;;;;;;;;;4981011;28;101333;-80
2024/01/01 00:11:44;;;;;;;25.92;16.73;;;;;;;;;;4977039;28;98603;-80
2024/01/01 00:14:12;;;;;;;32.30;16.67;;;;;;;;;;4977463;28;98393;-80
2024/01/01 00:16:39;;;;;;;22.80;15.65;;;;;;;;;;4981237;28;98870;-81
2024/01/01 00:19:06;;;;;;;25.88;15.35;;;;;;;;;;4995347;28;97822;-80
2024/01/01 00:21:33;;;;;;;22.95;14.27;;;;;;;;;;4995526;28;99480;-80
2024/01/01 00:24:00;;;;;;;23.80;14.23;;;;;;;;;;5005063;28;101691;-79
2024/01/01 00:26:26;;;;;;;26.10;14.40;;;;;;;;;;5011275;27;99016;-80
2024/01/01 00:28:59;;;;;;;22.58;13.35;;;;;;;;;;4978380;28;100031;-81
2024/01/01 00:31:26;;;;;;;22.00;13.95;;;;;;;;;;5006923;28;99492;-79
2024/01/01 00:33:52;;;;;;;21.67;12.88;;;;;;;;;;5000334;28;100266;-80
2024/01/01 00:36:19;;;;;;;25.35;12.90;;;;;;;;;;4989721;28;99904;-81
2024/01/01 00:38:46;;;;;;;20.45;12.15;;;;;;;;;;4985165;28;98642;-80
2024/01/01 00:41:14;;;;;;;19.20;11.75;;;;;;;;;;5007726;28;101125;-80
2024/01/01 00:43:42;;;;;;;19.42;12.48;;;;;;;;;;4986671;28;97980;-80
2024/01/01 00:46:10;;;;;;;17.83;11.02;;;;;;;;;;4995876;27;100363;-80
2024/01/01 00:48:36;;;;;;;18.17;11.30;;;;;;;;;;4998150;28;98964;-81
2024/01/01 00:51:03;;;;;;;19.55;10.90;;;;;;;;;;5006688;28;100139;-80
2024/01/01 00:53:30;;;;;;;18.50;10.63;;;;;;;;;;5005432;28;98792;-80
2024/01/01 00:55:57;;;;;;;16.80;10.57;;;;;;;;;;5003551;28;98796;-79
2024/01/01 00:58:23;;;;;;;19.05;10.65;;;;;;;;;;5009791;28;98371;-79
2024/01/01 01:00:50;;;;;;;17.42;10.00;;;;;;;;;;5000868;28;98481;-80
2024/01/01 01:03:17;;;;;;;19.55;9.85;;;;;;;;;;5004973;28;100854;-79
2024/01/01 01:05:44;;;;;;;16.67;9.75;;;;;;;;;;5009881;28;98153;-79
2024/01/01 01:08:10;;;;;;;16.15;9.30;;;;;;;;;;5001077;27;99176;-80
2024/01/01 01:10:37;;;;;;;16.08;8.93;;;;;;;;;;5011895;28;101364;-79
2024/01/01 01:13:04;;;;;;;18.02;9.10;;;;;;;;;;4979515;28;98432;-79
2024/01/01 01:15:31;;;;;;;13.60;8.60;;;;;;;;;;5012083;28;101163;-79
2024/01/01 01:17:58;;;;;;;14.00;8.43;;;;;;;;;;5015093;28;98810;-79
2024/01/01 01:20:25;;;;;;;15.18;8.43;;;;;;;;;;4996287;28;101280;-78
2024/01/01 01:22:51;;;;;;;14.77;8.02;;;;;;;;;;5003040;28;98553;-79
2024/01/01 01:25:18;;;;;;;12.95;7.32;;;;;;;;;;5016894;28;98167;-79
2024/01/01 01:27:45;;;;;;;14.20;8.02;;;;;;;;;;5002869;28;101066;-79
2024/01/01 01:30:11;;;;;;;12.80;7.15;;;;;;;;;;4994615;28;100642;-80
2024/01/01 01:32:38;;;;;;;13.05;7.10;;;;;;;;;;5011747;28;97758;-79
2024/01/01 01:35:05;;;;;;;13.70;7.05;;;;;;;;;;4997508;28;98466;-78
2024/01/01 01:37:32;;;;;;;12.45;6.68;;;;;;;;;;4996870;28;98704;-79
2024/01/01 01:39:59;;;;;;;11.55;6.28;;;;;;;;;;4998317;28;101095;-79
2024/01/01 01:42:26;;;;;;;11.70;6.25;;;;;;;;;;5011372;28;98742;-80
2024/01/01 01:44:53;;;;;;;12.23;6.03;;;;;;;;;;4996738;27;98604;-80
2024/01/01 01:47:20;;;;;;;11.63;5.93;;;;;;;;;;4996354;28;98630;-79
2024/01/01 01:49:47;;;;;;;13.93;5.88;;;;;;;;;;4995037;28;100982;-80
2024/01/01 01:52:14;;;;;;;10.68;5.22;;;;;;;;;;5011103;28;98249;-79
2024/01/01 01:54:41;;;;;;;11.98;5.20;;;;;;;;;;4987830;28;99288;-80
2024/01/01 01:57:07;;;;;;;11.27;5.60;;;;;;;;;;4979150;28;97828;-80
2024/01/01 01:59:34;;;;;;;10.63;4.97;;;;;;;;;;4997728;28;100038;-80
2024/01/01 02:02:01;;;;;;;9.65;4.60;;;;;;;;;;5003859;28;98456;-79
2024/01/01 02:04:28;;;;;;;11.65;4.90;;;;;;;;;;4997591;28;99125;-79
2024/01/01 02:06:55;;;;;;;;;;;;;;;;;;4980174;28;101752;-81
2024/01/01 02:09:21;;;;;;;9.95;4.40;;;;;;;;;;4979942;28;117503;-82
2024/01/01 02:11:48;;;;;;;10.18;5.13;;;;;;;;;;4992713;28;98361;-82
2024/01/01 02:14:15;;;;;;;10.00;4.63;;;;;;;;;;4990581;28;101067;-81
2024/01/01 02:16:43;;;;;;;9.55;4.20;;;;;;;;;;5020425;27;99730;-82
2024/01/01 02:19:16;;;;;;;10.75;4.75;;;;;;;;;;5020927;27;99655;-83
2024/01/01 02:21:42;;;;;;;10.63;4.00;;;;;;;;;;5023305;28;98457;-82
2024/01/01 02:24:09;;;;;;;9.32;4.45;;;;;;;;;;5018643;28;98589;-81
2024/01/01 02:26:35;;;;;;;9.10;4.10;;;;;;;;;;5002945;28;105481;-81
2024/01/01 02:29:02;;;;;;;9.63;3.92;;;;;;;;;;5020025;28;99525;-81
2024/01/01 02:31:29;;;;;;;9.70;4.70;;;;;;;;;;5019993;28;98489;-82
2024/01/01 02:33:56;;;;;;;10.88;4.55;;;;;;;;;;5019710;28;100633;-83
2024/01/01 02:36:24;;;;;;;9.43;3.70;;;;;;;;;;4981499;28;100776;-82
2024/01/01 02:38:50;;;;;;;10.18;4.32;;;;;;;;;;5006638;28;98981;-84
2024/01/01 02:41:17;;;;;;;8.45;3.80;;;;;;;;;;4999185;28;101096;-82
2024/01/01 02:43:43;;;;;;;9.07;3.70;;;;;;;;;;5003759;28;98744;-82
2024/01/01 02:46:10;;;;;;;9.73;4.05;;;;;;;;;;4999414;28;100501;-82
2024/01/01 02:48:36;;;;;;;9.60;3.42;;;;;;;;;;4999058;28;103291;-82
2024/01/01 02:51:03;;;;;;;9.00;3.90;;;;;;;;;;4999670;28;98272;-82
2024/01/01 02:53:32;;;;;;;7.85;3.65;;;;;;;;;;4982359;28;101262;-82
2024/01/01 02:55:58;;;;;;;8.93;3.70;;;;;;;;;;4998203;28;99262;-82
2024/01/01 02:58:25;;;;;;;9.07;3.92;;;;;;;;;;5000609;27;98250;-83
2024/01/01 03:00:52;;;;;;;9.85;3.60;;;;;;;;;;4979742;28;100732;-83
2024/01/01 03:03:19;;;;;;;9.10;3.50;;;;;;;;;;4999843;27;99095;-82
2024/01/01 03:05:45;;;;;;;8.90;3.35;;;;;;;;;;5002376;28;98222;-81
2024/01/01 03:08:12;;;;;;;8.98;3.35;;;;;;;;;;4997873;28;101487;-81
2024/01/01 03:10:39;;;;;;;8.30;3.22;;;;;;;;;;5035636;27;104203;-82
2024/01/01 03:13:06;;;;;;;10.02;3.20;;;;;;;;;;5018491;28;99985;-82
2024/01/01 03:15:35;;;;;;;9.15;3.22;;;;;;;;;;5011439;28;102035;-81
2024/01/01 03:18:05;;;;;;;8.60;3.00;;;;;;;;;;5017938;28;99074;-82
2024/01/01 03:20:33;;;;;;;9.07;3.40;;;;;;;;;;5001090;27;102360;-82
2024/01/01 03:23:00;;;;;;;7.90;2.80;;;;;;;;;;5000843;28;101792;-83
2024/01/01 03:25:26;;;;;;;8.20;3.13;;;;;;;;;;5025704;27;98151;-81
2024/01/01 03:27:54;;;;;;;7.13;3.05;;;;;;;;;;5021266;28;100938;-83
2024/01/01 03:30:21;;;;;;;7.90;3.13;;;;;;;;;;5016789;27;98136;-82
2024/01/01 03:32:50;;;;;;;8.55;2.70;;;;;;;;;;5004384;28;98364;-82
2024/01/01 03:35:16;;;;;;;8.57;3.20;;;;;;;;;;5010205;28;98083;-82
2024/01/01 03:37:43;;;;;;;8.57;3.03;;;;;;;;;;4999761;28;98651;-82
2024/01/01 03:40:12;;;;;;;8.23;3.05;;;;;;;;;;5014324;27;98770;-82
2024/01/01 03:42:39;;;;;;;7.93;3.30;;;;;;;;;;4999936;28;102293;-81
2024/01/01 03:45:06;;;;;;;9.65;3.10;;;;;;;;;;5010384;28;98261;-82
2024/01/01 03:47:34;;;;;;;6.93;2.70;;;;;;;;;;4999611;28;98687;-84
2024/01/01 03:50:01;;;;;;;8.57;2.95;;;;;;;;;;5000272;28;101775;-82
2024/01/01 03:52:27;;;;;;;8.40;2.67;;;;;;;;;;5014961;28;98488;-81
2024/01/01 03:54:54;;;;;;;7.50;2.80;;;;;;;;;;5000072;28;101535;-82
2024/01/01 03:57:21;;;;;;;8.05;2.65;;;;;;;;;;5008374;28;98173;-82
2024/01/01 03:59:47;;;;;;;7.70;2.70;;;;;;;;;;5004928;28;100733;-83
2024/01/01 04:02:14;;;;;;;8.90;2.72;;;;;;;;;;4995818;28;101705;-82
2024/01/01 04:04:44;;;;;;;7.55;2.45;;;;;;;;;;4997422;28;98631;-82
2024/01/01 04:07:11;;;;;;;9.18;2.70;;;;;;;;;;4998045;28;101228;-83
2024/01/01 04:09:38;;;;;;;7.50;2.50;;;;;;;;;;4990244;28;101737;-84
2024/01/01 04:12:04;;;;;;;8.32;2.65;;;;;;;;;;4998507;28;98138;-83
2024/01/01 04:14:31;;;;;;;6.63;2.30;;;;;;;;;;4999607;28;99286;-84
2024/01/01 04:16:58;;;;;;;6.82;2.25;;;;;;;;;;5006487;28;98137;-83
2024/01/01 04:19:28;;;;;;;6.45;2.20;;;;;;;;;;5007949;28;100772;-84
2024/01/01 04:21:57;;;;;;;7.82;2.30;;;;;;;;;;4990561;28;98762;-84
2024/01/01 04:24:24;;;;;;;6.55;2.10;;;;;;;;;;4989231;28;99520;-84
2024/01/01 04:26:51;;;;;;;8.00;2.40;;;;;;;;;;5012894;28;100480;-84
2024/01/01 04:29:17;;;;;;;10.00;2.42;;;;;;;;;;4997663;28;101571;-83
2024/01/01 04:31:45;;;;;;;8.25;2.40;;;;;;;;;;4993877;28;101966;-84
2024/01/01 04:34:12;;;;;;;7.63;2.15;;;;;;;;;;5000249;27;98779;-83
2024/01/01 04:36:39;;;;;;;6.95;2.10;;;;;;;;;;4997984;28;98268;-84
2024/01/01 04:39:06;;;;;;;8.48;2.30;;;;;;;;;;5004959;28;98451;-83
2024/01/01 04:41:34;;;;;;;10.05;2.30;;;;;;;;;;5007152;28;100530;-83
2024/01/01 04:44:01;;;;;;;7.32;2.40;;;;;;;;;;4997307;28;98331;-82
2024/01/01 04:46:28;;;;;;;8.65;2.30;;;;;;;;;;4980316;28;101507;-83
2024/01/01 04:48:55;;;;;;;6.68;2.00;;;;;;;;;;4999480;28;98297;-82
2024/01/01 04:51:21;;;;;;;8.05;2.30;;;;;;;;;;4997324;28;98959;-84
2024/01/01 04:53:49;;;;;;;7.82;1.90;;;;;;;;;;5000692;28;98584;-84
2024/01/01 04:56:17;;;;;;;6.40;2.13;;;;;;;;;;4980099;28;98976;-82
2024/01/01 04:58:43;;;;;;;8.18;2.30;;;;;;;;;;5014291;28;99135;-82
2024/01/01 05:01:10;;;;;;;6.90;2.00;;;;;;;;;;4997124;28;100193;-83
2024/01/01 05:03:37;;;;;;;6.40;2.20;;;;;;;;;;5011315;28;98473;-82
2024/01/01 05:06:04;;;;;;;5.72;1.80;;;;;;;;;;5017577;27;99001;-82
2024/01/01 05:08:32;;;;;;;7.28;2.08;;;;;;;;;;5017715;28;99251;-82
2024/01/01 05:11:02;;;;;;;5.03;1.80;;;;;;;;;;5009877;28;98317;-82
2024/01/01 05:13:29;;;;;;;6.00;2.00;;;;;;;;;;4998910;28;98708;-83
2024/01/01 05:15:55;;;;;;;6.25;1.90;;;;;;;;;;4999774;28;98972;-82
2024/01/01 05:18:22;;;;;;;6.40;1.83;;;;;;;;;;5014370;28;98357;-83
2024/01/01 05:20:48;;;;;;;4.70;1.63;;;;;;;;;;5017532;28;99483;-83
2024/01/01 05:23:15;;;;;;;9.32;1.92;;;;;;;;;;5008222;27;98290;-83
2024/01/01 05:25:44;;;;;;;7.10;1.95;;;;;;;;;;4997133;28;101639;-82
2024/01/01 05:28:11;;;;;;;7.72;1.90;;;;;;;;;;4997656;28;99025;-82
2024/01/01 05:30:37;;;;;;;7.47;1.73;;;;;;;;;;5012664;28;98087;-82
2024/01/01 05:33:05;;;;;;;7.60;2.22;;;;;;;;;;4996544;28;100412;-82
2024/01/01 05:35:32;;;;;;;8.75;2.00;;;;;;;;;;5008729;28;98732;-83
2024/01/01 05:37:59;;;;;;;7.22;1.80;;;;;;;;;;5004919;28;97423;-82
2024/01/01 05:40:25;;;;;;;6.13;1.80;;;;;;;;;;4995217;28;101692;-82
2024/01/01 05:42:52;;;;;;;6.10;1.80;;;;;;;;;;5013012;27;98540;-83
2024/01/01 05:45:18;;;;;;;6.18;1.60;;;;;;;;;;4985781;28;102497;-82
2024/01/01 05:47:45;;;;;;;6.35;1.70;;;;;;;;;;4976624;28;101802;-83
2024/01/01 05:50:11;;;;;;;6.18;1.75;;;;;;;;;;4981453;28;99062;-83
2024/01/01 05:52:38;;;;;;;7.55;1.67;;;;;;;;;;5000246;28;98526;-83
2024/01/01 05:55:05;;;;;;;6.05;1.85;;;;;;;;;;5008640;28;98815;-83
2024/01/01 05:57:34;;;;;;;7.72;1.80;;;;;;;;;;4997653;28;98341;-83
2024/01/01 06:00:00;;;;;;;5.28;1.67;;;;;;;;;;5013978;28;101042;-82
2024/01/01 06:02:33;;;;;;;5.30;1.60;;;;;;;;;;5000812;27;97496;-83
2024/01/01 06:05:01;;;;;;;5.15;1.50;;;;;;;;;;5002410;27;98337;-85
2024/01/01 06:07:28;;;;;;;6.65;1.75;;;;;;;;;;5007020;28;101245;-83
2024/01/01 06:09:55;;;;;;;6.25;1.85;;;;;;;;;;5033349;28;99172;-82
2024/01/01 06:12:22;;;;;;;4.88;1.60;;;;;;;;;;4997094;28;99797;-82
2024/01/01 06:14:49;;;;;;;6.18;1.80;;;;;;;;;;5001007;28;101590;-82
2024/01/01 06:17:15;;;;;;;5.93;1.92;;;;;;;;;;5009649;27;98217;-83
2024/01/01 06:19:48;;;;;;;4.90;1.40;;;;;;;;;;5009544;28;102116;-83
2024/01/01 06:22:15;;;;;;;7.75;1.65;;;;;;;;;;5018291;28;101525;-82
2024/01/01 06:24:43;;;;;;;7.80;1.80;;;;;;;;;;5031697;27;101077;-83
2024/01/01 06:27:10;;;;;;;9.30;1.60;;;;;;;;;;5009261;27;98676;-82
2024/01/01 06:29:37;;;;;;;5.65;1.60;;;;;;;;;;4975551;28;98564;-81
2024/01/01 06:32:04;;;;;;;5.55;1.58;;;;;;;;;;4959714;28;101595;-81
2024/01/01 06:34:30;;;;;;;4.85;1.38;;;;;;;;;;4993085;28;102221;-82
2024/01/01 06:36:57;;;;;;;5.72;1.55;;;;;;;;;;4981352;28;98095;-81
2024/01/01 06:39:23;;;;;;;4.85;1.40;;;;;;;;;;4991755;28;98580;-80
2024/01/01 06:41:52;;;;;;;6.50;1.73;;;;;;;;;;4999936;28;99072;-80
2024/01/01 06:44:19;;;;;;;6.00;1.50;;;;;;;;;;4997301;28;100781;-81
2024/01/01 06:46:46;;;;;;;6.38;1.75;;;;;;;;;;5001015;28;98783;-81
2024/01/01 06:49:12;;;;;;;7.32;1.52;;;;;;;;;;5015575;28;98422;-82
2024/01/01 06:51:39;;;;;;;4.03;1.40;;;;;;;;;;5001234;28;98415;-83
2024/01/01 06:54:06;;;;;;;6.57;1.40;;;;;;;;;;4999421;28;99082;-82
2024/01/01 06:56:38;;;;;;;7.63;1.60;;;;;;;;;;5000079;28;98556;-83
2024/01/01 06:59:05;;;;;;;7.03;1.80;;;;;;;;;;4998827;28;99599;-82
2024/01/01 07:01:31;;;;;;;5.03;1.40;;;;;;;;;;4995879;28;98817;-84
2024/01/01 07:03:58;;;;;;;6.40;1.73;;;;;;;;;;4998828;28;98464;-83
2024/01/01 07:06:24;;;;;;;5.30;1.38;;;;;;;;;;4997516;28;101213;-83
2024/01/01 07:08:51;;;;;;;8.35;1.40;;;;;;;;;;5018569;28;98542;-82
2024/01/01 07:11:19;;;;;;;4.93;1.40;;;;;;;;;;5000224;28;101291;-83
2024/01/01 07:13:45;;;;;;;6.20;1.60;;;;;;;;;;5019622;28;98974;-82
2024/01/01 07:16:13;;;;;;;4.85;1.40;;;;;;;;;;5019363;28;97320;-82
2024/01/01 07:18:40;;;;;;;7.13;1.58;;;;;;;;;;5019066;28;98397;-82
2024/01/01 07:21:07;;;;;;;4.90;1.27;;;;;;;;;;5017241;28;101112;-82
2024/01/01 07:23:33;;;;;;;4.47;1.30;;;;;;;;;;5017988;28;98939;-82
2024/01/01 07:26:00;;;;;;;7.53;1.58;;;;;;;;;;5021449;28;99209;-82
2024/01/01 07:28:27;;;;;;;5.00;1.48;;;;;;;;;;4984163;28;98274;-82
2024/01/01 07:30:53;;;;;;;4.93;1.50;;;;;;;;;;5001527;28;101271;-82
2024/01/01 07:33:20;;;;;;;4.85;1.50;;;;;;;;;;4997772;28;101374;-84
2024/01/01 07:35:47;;;;;;;7.80;1.70;;;;;;;;;;5027347;28;98534;-82
2024/01/01 07:38:13;;;;;;;7.28;1.70;;;;;;;;;;4983772;28;100946;-81
2024/01/01 07:40:41;;;;;;;7.53;1.60;;;;;;;;;;4998048;28;98050;-81
2024/01/01 07:43:07;;;;;;;6.88;1.52;;;;;;;;;;4997733;28;98606;-81
2024/01/01 07:45:34;;;;;;;7.07;1.80;;;;;;;;;;4997343;28;98585;-82
2024/01/01 07:48:01;;;;;;;5.95;1.50;;;;;;;;;;5000700;28;99901;-80
2024/01/01 07:50:27;;;;;;;7.78;1.70;;;;;;;;;;4995321;28;99473;-81
2024/01/01 07:52:54;;;;;;;7.85;1.80;;;;;;;;;;5004265;28;98831;-80
2024/01/01 07:55:21;;;;;;;7.60;1.60;;;;;;;;;;5005503;28;98148;-80
2024/01/01 07:57:48;;;;;;;8.65;1.58;;;;;;;;;;4995340;28;99721;-81
2024/01/01 08:00:15;;;;;;;6.15;1.55;;;;;;;;;;4997514;28;99177;-81
2024/01/01 08:02:43;;;;;;;6.95;1.50;;;;;;;;;;5011721;28;98250;-81
2024/01/01 08:05:10;;;;;;;6.50;1.50;;;;;;;;;;4997086;28;98409;-81
2024/01/01 08:07:37;;;;;;;7.55;1.40;;;;;;;;;;5008288;28;98756;-81
2024/01/01 08:10:04;;;;;;;7.38;1.52;;;;;;;;;;5019231;28;98236;-81
2024/01/01 08:12:33;;;;;;;7.60;1.42;;;;;;;;;;5013980;27;103152;-82
2024/01/01 08:14:59;;;;;;;5.75;1.65;;;;;;;;;;5000291;28;98384;-82
2024/01/01 08:17:36;;;;;;;5.95;1.42;;;;;;;;;;5017714;27;100278;-81
2024/01/01 08:20:04;;;;;;;6.05;1.70;;;;;;;;;;5017227;27;99003;-82
2024/01/01 08:22:31;;;;;;;7.20;1.50;;;;;;;;;;4999234;28;98232;-80
2024/01/01 08:24:57;;;;;;;6.03;1.60;;;;;;;;;;5010157;28;98439;-81
2024/01/01 08:27:24;;;;;;;5.88;1.50;;;;;;;;;;5011888;28;101014;-81
2024/01/01 08:29:53;;;;;;;7.68;1.50;;;;;;;;;;4996085;28;97997;-81
2024/01/01 08:32:24;;;;;;;4.80;1.33;;;;;;;;;;4994828;28;100243;-81
2024/01/01 08:34:53;;;;;;;6.13;1.40;;;;;;;;;;4995510;28;98346;-82
2024/01/01 08:37:20;;;;;;;5.20;1.40;;;;;;;;;;5007863;28;98902;-81
2024/01/01 08:39:47;;;;;;;6.47;1.60;;;;;;;;;;4998505;28;99691;-82
2024/01/01 08:42:13;;;;;;;7.80;1.40;;;;;;;;;;4996679;28;98659;-81
2024/01/01 08:44:41;;;;;;;4.57;1.40;;;;;;;;;;4996092;28;98801;-82
2024/01/01 08:47:07;;;;;;;5.28;1.20;;;;;;;;;;4981520;28;98904;-82
2024/01/01 08:49:34;;;;;;;5.60;1.40;;;;;;;;;;4975897;28;98567;-82
2024/01/01 08:52:01;;;;;;;6.57;1.45;;;;;;;;;;4980701;28;99427;-82
2024/01/01 08:54:27;;;;;;;6.80;1.30;;;;;;;;;;4977518;28;97652;-81
2024/01/01 08:56:54;;;;;;;5.68;1.45;;;;;;;;;;4975272;28;100570;-81
2024/01/01 08:59:20;;;;;;;7.93;1.67;;;;;;;;;;4975625;28;101029;-81
2024/01/01 09:01:47;;;;;;;8.35;1.48;;;;;;;;;;4975262;28;99284;-81
2024/01/01 09:04:14;;;;;;;6.72;1.50;;;;;;;;;;4983045;28;99297;-81
2024/01/01 09:06:40;;;;;;;4.55;1.30;;;;;;;;;;4994919;28;101210;-83
2024/01/01 09:09:10;;;;;;;6.68;1.30;;;;;;;;;;4995805;28;98810;-81
2024/01/01 09:11:36;;;;;;;4.78;1.30;;;;;;;;;;4995851;28;98455;-83
2024/01/01 09:14:03;;;;;;;6.90;1.40;;;;;;;;;;4998300;28;99036;-82
2024/01/01 09:16:31;;;;;;;5.05;1.30;;;;;;;;;;4997182;28;98604;-83
2024/01/01 09:19:01;;;;;;;7.63;1.40;;;;;;;;;;4995765;28;98304;-83
2024/01/01 09:21:28;;;;;;;6.72;1.20;;;;;;;;;;4989870;28;98714;-82
2024/01/01 09:24:00;;;;;;;5.47;1.20;;;;;;;;;;5015721;28;98195;-82
2024/01/01 09:26:30;;;;;;;6.47;1.30;;;;;;;;;;4995595;27;99570;-82
2024/01/01 09:28:57;;;;;;;5.47;1.30;;;;;;;;;;4978931;28;98509;-83
2024/01/01 09:31:24;;;;;;;4.97;1.15;;;;;;;;;;4996594;28;98558;-82
2024/01/01 09:33:51;;;;;;;6.20;1.30;;;;;;;;;;4996601;28;99446;-82
2024/01/01 09:36:18;;;;;;;3.97;1.33;;;;;;;;;;5011948;28;99248;-82
2024/01/01 09:38:45;;;;;;;5.43;1.60;;;;;;;;;;5011830;27;98860;-81
2024/01/01 09:41:11;;;;;;;7.88;1.73;;;;;;;;;;4985021;28;98807;-82
2024/01/01 09:43:39;;;;;;;6.88;1.42;;;;;;;;;;4996376;28;97999;-81
2024/01/01 09:46:06;;;;;;;6.00;1.45;;;;;;;;;;4995600;28;98770;-82
2024/01/01 09:48:33;;;;;;;6.28;1.35;;;;;;;;;;4994734;28;98503;-82
2024/01/01 09:51:01;;;;;;;4.45;1.30;;;;;;;;;;4995580;28;99956;-82
2024/01/01 09:53:29;;;;;;;5.22;1.20;;;;;;;;;;4995870;28;98852;-82
2024/01/01 09:55:56;;;;;;;5.40;1.60;;;;;;;;;;4994928;28;98298;-83
2024/01/01 09:58:22;;;;;;;3.70;1.10;;;;;;;;;;4998228;28;98787;-83
2024/01/01 10:00:49;;;;;;;4.53;1.20;;;;;;;;;;4994728;28;98447;-82
2024/01/01 10:03:16;;;;;;;4.90;1.30;;;;;;;;;;4995334;28;100926;-83
2024/01/01 10:05:44;;;;;;;5.25;1.30;;;;;;;;;;5008059;28;101361;-82
2024/01/01 10:08:11;;;;;;;7.60;1.48;;;;;;;;;;4997844;28;97848;-80
2024/01/01 10:10:38;;;;;;;6.95;1.70;;;;;;;;;;4997260;28;100217;-80
2024/01/01 10:13:09;;;;;;;5.07;1.63;;;;;;;;;;5015309;28;98772;-81
2024/01/01 10:15:40;;;;;;;4.82;1.35;;;;;;;;;;5001342;28;99263;-79
2024/01/01 10:18:11;;;;;;;4.90;1.50;;;;;;;;;;4994460;28;98895;-80
2024/01/01 10:20:39;;;;;;;5.05;1.50;;;;;;;;;;4999845;28;105633;-80
2024/01/01 10:23:21;;;;;;;3.35;1.30;;;;;;;;;;5021314;28;98938;-81
2024/01/01 10:25:51;;;;;;;5.25;1.58;;;;;;;;;;5004003;28;100277;-80
2024/01/01 10:28:24;;;;;;;4.70;1.30;;;;;;;;;;4998000;28;98296;-81
2024/01/01 10:30:51;;;;;;;;;;;;;;;;;;4997139;28;99857;-81
2024/01/01 10:33:18;;;;;;;4.85;1.45;;;;;;;;;;4999467;28;98112;-81
2024/01/01 10:35:45;;;;;;;6.43;1.67;;;;;;;;;;4998807;28;98585;-81
2024/01/01 10:38:12;;;;;;;4.63;1.30;;;;;;;;;;4996608;28;99119;-81
2024/01/01 10:40:39;;;;;;;;;;;;;;;;;;4996258;28;101182;-81
2024/01/01 10:43:07;;;;;;;4.95;1.33;;;;;;;;;;5006421;28;98354;-80
2024/01/01 10:45:34;;;;;;;7.13;1.40;;;;;;;;;;4996284;28;102323;-80
2024/01/01 10:48:01;;;;;;;3.65;1.20;;;;;;;;;;4965005;28;98578;-80
2024/01/01 10:50:29;;;;;;;5.57;1.55;;;;;;;;;;4975184;28;99437;-79
2024/01/01 10:52:56;;;;;;;4.13;1.10;;;;;;;;;;4986777;28;99069;-81
2024/01/01 10:55:29;;;;;;;7.88;1.50;;;;;;;;;;4996690;28;98546;-81
2024/01/01 10:57:59;;;;;;;8.25;1.60;;;;;;;;;;4996810;28;101572;-80
2024/01/01 11:00:25;;;;;;;8.18;1.38;;;;;;;;;;4995746;28;101885;-81
2024/01/01 11:02:53;;;;;;;8.40;1.42;;;;;;;;;;4998946;28;98322;-78
2024/01/01 11:05:19;;;;;;;;;;;;;;;;;;4996110;28;106400;-79
2024/01/01 11:07:52;;;;;;;6.00;1.33;;;;;;;;;;5012183;28;98216;-80
2024/01/01 11:10:42;;;;;;;4.57;1.30;;;;;;;;;;5010142;28;101759;-81
2024/01/01 11:13:12;;;;;;;6.75;1.40;;;;;;;;;;4984805;28;99088;-80
2024/01/01 11:15:43;;;;;;;6.65;1.60;;;;;;;;;;4992854;28;98301;-80
2024/01/01 11:18:10;;;;;;;8.48;1.38;;;;;;;;;;5017277;28;98435;-81
2024/01/01 11:20:47;;;;;;;8.40;1.48;;;;;;;;;;5017673;27;99068;-81
2024/01/01 11:23:33;;;;;;;8.88;1.40;;;;;;;;;;5017592;28;97484;-82
2024/01/01 11:25:59;;;;;;;5.78;1.40;;;;;;;;;;5020742;28;98509;-80
2024/01/01 11:28:39;;;;;;;6.28;1.42;;;;;;;;;;4998181;27;98106;-80
2024/01/01 11:31:07;;;;;;;6.05;1.30;;;;;;;;;;4996980;28;98926;-80
2024/01/01 11:33:36;;;;;;;5.05;1.40;;;;;;;;;;5010213;28;98763;-82
2024/01/01 11:36:06;;;;;;;7.85;1.48;;;;;;;;;;5017157;28;98387;-81
2024/01/01 11:38:33;;;;;;;4.43;1.15;;;;;;;;;;5009687;28;98252;-81
2024/01/01 11:41:00;;;;;;;5.88;1.40;;;;;;;;;;5006996;28;99138;-80
2024/01/01 11:43:26;;;;;;;6.53;1.13;;;;;;;;;;4993798;28;98787;-80
2024/01/01 11:45:57;;;;;;;6.20;1.55;;;;;;;;;;4976374;28;101101;-79
2024/01/01 11:48:28;;;;;;;6.65;1.60;;;;;;;;;;4999841;28;98446;-80
2024/01/01 11:51:02;;;;;;;6.00;1.50;;;;;;;;;;4998196;28;99118;-80
2024/01/01 11:53:29;;;;;;;5.13;1.10;;;;;;;;;;4996016;28;101781;-79
2024/01/01 11:56:05;;;;;;;5.63;1.17;;;;;;;;;;4997596;28;99455;-80
2024/01/01 11:58:31;;;;;;;5.45;1.25;;;;;;;;;;4996569;28;100172;-79
2024/01/01 12:00:58;;;;;;;6.68;1.50;;;;;;;;;;5003699;28;99090;-79
2024/01/01 12:03:25;;;;;;;6.57;1.30;;;;;;;;;;5006338;28;98218;-79
2024/01/01 12:06:00;;;;;;;9.85;1.58;;;;;;;;;;4979821;28;100311;-79
2024/01/01 12:08:27;;;;;;;7.55;1.60;;;;;;;;;;4973575;28;99901;-78
2024/01/01 12:11:00;;;;;;;6.57;1.30;;;;;;;;;;5013876;28;98172;-79
2024/01/01 12:13:29;;;;;;;4.05;0.95;;;;;;;;;;5007415;28;97805;-80
2024/01/01 12:15:55;;;;;;;5.57;1.23;;;;;;;;;;5002499;28;98223;-80
2024/01/01 12:18:22;;;;;;;4.50;1.20;;;;;;;;;;5011708;28;100415;-79
2024/01/01 12:20:49;;;;;;;6.35;1.33;;;;;;;;;;5000516;28;99745;-79
2024/01/01 12:23:21;;;;;;;7.05;1.17;;;;;;;;;;5006701;28;98371;-78
2024/01/01 12:26:00;;;;;;;5.38;1.25;;;;;;;;;;4997267;28;98468;-79
2024/01/01 12:28:27;;;;;;;6.00;1.63;;;;;;;;;;5012855;28;98780;-80
2024/01/01 12:30:53;;;;;;;6.88;1.92;;;;;;;;;;4994783;28;98406;-80
2024/01/01 12:33:20;;;;;;;8.02;2.40;;;;;;;;;;5008872;28;98448;-79
2024/01/01 12:35:48;;;;;;;6.60;1.73;;;;;;;;;;4998507;28;98306;-80
2024/01/01 12:38:14;;;;;;;6.28;1.80;;;;;;;;;;4981099;28;98945;-80
2024/01/01 12:40:41;;;;;;;5.63;1.65;;;;;;;;;;4995686;28;99657;-79
2024/01/01 12:43:08;;;;;;;6.30;1.50;;;;;;;;;;4979294;28;98708;-80
2024/01/01 12:45:34;;;;;;;6.97;1.70;;;;;;;;;;4994925;28;101228;-80
2024/01/01 12:48:03;;;;;;;7.72;1.52;;;;;;;;;;4997055;28;99793;-78
2024/01/01 12:50:30;;;;;;;6.18;1.55;;;;;;;;;;4994238;28;98335;-79
2024/01/01 12:52:57;;;;;;;5.72;1.55;;;;;;;;;;5012452;28;98609;-80
2024/01/01 12:55:24;;;;;;;6.43;1.50;;;;;;;;;;4988544;28;98077;-80
2024/01/01 12:57:50;;;;;;;5.97;1.60;;;;;;;;;;4982505;28;100980;-80
2024/01/01 13:00:17;;;;;;;5.90;1.80;;;;;;;;;;5027214;28;98659;-80
2024/01/01 13:02:44;;;;;;;5.57;1.70;;;;;;;;;;5013849;28;97752;-80
2024/01/01 13:05:10;;;;;;;5.45;1.48;;;;;;;;;;5009322;28;100126;-80
2024/01/01 13:07:37;;;;;;;6.45;1.63;;;;;;;;;;5012234;28;98927;-81
2024/01/01 13:10:04;;;;;;;6.13;1.70;;;;;;;;;;5013754;28;98991;-80
2024/01/01 13:12:31;;;;;;;9.27;1.77;;;;;;;;;;5014155;27;99133;-80
2024/01/01 13:14:57;;;;;;;7.13;1.40;;;;;;;;;;4996200;28;101224;-80
2024/01/01 13:17:24;;;;;;;8.88;1.63;;;;;;;;;;4975800;28;100880;-81
2024/01/01 13:19:50;;;;;;;10.70;1.63;;;;;;;;;;4997942;28;99133;-79
2024/01/01 13:22:18;;;;;;;10.18;1.45;;;;;;;;;;5027961;27;98278;-78
2024/01/01 13:24:45;;;;;;;10.30;1.60;;;;;;;;;;4975362;28;101141;-80
2024/01/01 13:27:19;;;;;;;7.75;1.55;;;;;;;;;;5004109;28;100445;-81
2024/01/01 13:29:46;;;;;;;8.80;1.52;;;;;;;;;;5000534;28;98244;-79
2024/01/01 13:32:13;;;;;;;7.72;1.50;;;;;;;;;;4996735;28;98792;-81
2024/01/01 13:34:40;;;;;;;7.43;1.58;;;;;;;;;;5010044;28;102411;-83
2024/01/01 13:37:07;;;;;;;8.68;1.58;;;;;;;;;;4999398;27;98856;-82
2024/01/01 13:39:33;;;;;;;7.32;1.50;;;;;;;;;;4988875;28;101975;-82
2024/01/01 13:42:00;;;;;;;6.93;1.42;;;;;;;;;;5007962;28;98267;-82
2024/01/01 13:44:27;;;;;;;7.55;1.40;;;;;;;;;;4993432;28;99827;-81
2024/01/01 13:46:54;;;;;;;8.10;1.40;;;;;;;;;;4995361;28;98778;-81
2024/01/01 13:49:20;;;;;;;6.95;1.33;;;;;;;;;;4995821;28;98195;-82
2024/01/01 13:51:47;;;;;;;6.07;1.48;;;;;;;;;;4993753;28;101615;-81
2024/01/01 13:54:16;;;;;;;7.15;1.45;;;;;;;;;;4998258;27;99326;-81
2024/01/01 13:56:44;;;;;;;7.50;1.42;;;;;;;;;;4998733;28;98254;-81
2024/01/01 13:59:10;;;;;;;6.38;1.30;;;;;;;;;;5002796;28;99189;-81
2024/01/01 14:01:37;;;;;;;5.15;1.10;;;;;;;;;;4987420;28;98606;-81
2024/01/01 14:04:04;;;;;;;4.60;1.20;;;;;;;;;;4980496;28;98318;-82
2024/01/01 14:06:31;;;;;;;4.55;1.27;;;;;;;;;;4998415;28;98955;-82
2024/01/01 14:08:58;;;;;;;4.80;1.10;;;;;;;;;;5000627;28;98105;-81
2024/01/01 14:11:25;;;;;;;6.95;1.42;;;;;;;;;;4999386;28;104597;-82
2024/01/01 14:13:51;;;;;;;6.40;1.30;;;;;;;;;;5000032;27;99421;-83
2024/01/01 14:16:18;;;;;;;4.80;1.10;;;;;;;;;;5012625;28;97784;-83
2024/01/01 14:18:45;;;;;;;6.53;1.25;;;;;;;;;;4999309;28;99865;-82
2024/01/01 14:21:13;;;;;;;5.07;1.30;;;;;;;;;;5001383;28;98869;-83
2024/01/01 14:23:39;;;;;;;3.97;1.00;;;;;;;;;;4998807;28;103153;-82
2024/01/01 14:26:06;;;;;;;5.72;1.27;;;;;;;;;;4998006;28;99114;-82
2024/01/01 14:28:33;;;;;;;5.53;1.30;;;;;;;;;;4997549;28;98336;-82
2024/01/01 14:31:00;;;;;;;6.38;1.33;;;;;;;;;;4999675;28;98743;-83
2024/01/01 14:33:28;;;;;;;6.25;1.42;;;;;;;;;;4998563;28;99104;-81
2024/01/01 14:35:55;;;;;;;12.63;1.42;;;;;;;;;;5000154;28;98553;-81
2024/01/01 14:38:22;;;;;;;4.90;1.40;;;;;;;;;;4997310;28;98487;-80
2024/01/01 14:40:48;;;;;;;4.90;1.15;;;;;;;;;;4996506;28;100110;-81